createdAt,value
2022-09-07T00:02:24.340Z,2.50
2022-09-07T00:05:45.249Z,2.70
2022-09-07T00:08:47.272Z,2.70
2022-09-07T00:12:09.561Z,2.63
2022-09-07T00:15:06.012Z,2.33
2022-09-07T00:21:04.910Z,2.40
2022-09-07T00:23:55.711Z,2.43
2022-09-07T00:26:58.996Z,2.60
2022-09-07T00:30:09.692Z,2.90
2022-09-07T00:33:16.542Z,2.43
2022-09-07T00:36:44.294Z,2.83
2022-09-07T00:39:36.949Z,2.60
2022-09-07T00:42:51.033Z,2.33
2022-09-07T00:45:40.108Z,2.97
2022-09-07T00:48:35.768Z,2.37
2022-09-07T00:52:09.328Z,2.20
2022-09-07T00:55:14.945Z,2.30
2022-09-07T00:58:13.896Z,2.30
2022-09-07T01:00:59.090Z,2.37
2022-09-07T01:08:18.918Z,2.80
2022-09-07T01:11:21.059Z,2.70
2022-09-07T01:17:28.388Z,2.17
2022-09-07T01:24:59.538Z,2.73
2022-09-07T01:28:31.206Z,2.27
2022-09-07T01:34:29.155Z,2.93
2022-09-07T01:37:55.044Z,2.70
2022-09-07T01:41:11.155Z,2.90
2022-09-07T01:44:10.300Z,2.83
2022-09-07T01:47:31.517Z,2.93
2022-09-07T01:50:32.647Z,3.13
2022-09-07T01:53:40.469Z,2.90
2022-09-07T02:03:16.204Z,2.53
2022-09-07T02:06:05.138Z,2.77
2022-09-07T02:09:03.443Z,2.90
2022-09-07T02:11:40.550Z,2.80
2022-09-07T02:14:15.137Z,2.60
2022-09-07T02:16:52.740Z,2.60
2022-09-07T02:20:04.631Z,2.90
2022-09-07T02:23:12.264Z,2.60
2022-09-07T02:26:39.337Z,2.70
2022-09-07T02:36:51.379Z,2.90
2022-09-07T02:43:40.094Z,3.00
2022-09-07T02:47:25.032Z,2.40
2022-09-07T02:51:24.227Z,2.80
2022-09-07T02:54:42.213Z,2.97
2022-09-07T02:57:29.260Z,2.73
2022-09-07T03:00:36.539Z,2.60
2022-09-07T03:03:39.138Z,2.67
2022-09-07T03:06:43.655Z,3.27
2022-09-07T03:12:29.346Z,2.53
2022-09-07T03:15:44.535Z,3.03
2022-09-07T03:18:43.636Z,2.80
2022-09-07T03:25:00.166Z,2.60
2022-09-07T03:27:46.187Z,3.20
2022-09-07T03:30:31.902Z,3.00
2022-09-07T03:33:12.755Z,2.53
2022-09-07T03:36:24.601Z,3.07
2022-09-07T03:39:20.204Z,2.80
2022-09-07T03:42:42.057Z,3.00
2022-09-07T03:45:28.427Z,2.70
2022-09-07T03:48:37.558Z,2.40
2022-09-07T03:51:37.100Z,2.53
2022-09-07T03:54:25.317Z,2.70
2022-09-07T03:57:37.433Z,2.30
2022-09-07T04:00:52.061Z,2.60
2022-09-07T04:03:43.651Z,2.77
2022-09-07T04:07:04.940Z,2.57
2022-09-07T04:10:12.402Z,2.60
2022-09-07T04:17:06.607Z,2.60
2022-09-07T04:23:29.644Z,2.53
2022-09-07T04:26:37.900Z,2.73
2022-09-07T04:29:41.217Z,2.80
2022-09-07T04:32:56.905Z,2.33
2022-09-07T04:35:57.347Z,3.10
2022-09-07T04:38:48.108Z,2.60
2022-09-07T04:41:47.107Z,2.70
2022-09-07T04:44:44.280Z,2.70
2022-09-07T04:47:51.255Z,2.77
2022-09-07T04:51:05.913Z,2.60
2022-09-07T04:54:22.325Z,2.77
2022-09-07T04:57:37.280Z,2.70
2022-09-07T05:00:53.529Z,2.70
2022-09-07T05:03:47.584Z,2.60
2022-09-07T05:07:01.251Z,2.60
2022-09-07T05:09:46.527Z,2.57
2022-09-07T05:12:54.300Z,2.43
2022-09-07T05:16:01.185Z,2.47
2022-09-07T05:18:59.701Z,2.60
2022-09-07T05:21:37.223Z,2.60
2022-09-07T05:25:02.700Z,2.93
2022-09-07T05:27:55.675Z,2.63
2022-09-07T05:37:35.240Z,2.50
2022-09-07T05:40:31.931Z,2.80
2022-09-07T05:47:01.209Z,3.00
2022-09-07T05:50:05.626Z,3.00
2022-09-07T05:53:30.194Z,3.00
2022-09-07T05:56:37.871Z,3.13
2022-09-07T05:59:38.013Z,3.03
2022-09-07T06:02:55.440Z,3.00
2022-09-07T06:06:03.380Z,2.67
2022-09-07T06:20:52.886Z,2.60
2022-09-07T06:24:12.546Z,2.50
2022-09-07T06:27:29.961Z,2.87
2022-09-07T06:31:02.271Z,2.63
2022-09-07T06:34:56.330Z,2.70
2022-09-07T06:37:55.596Z,2.80
2022-09-07T06:48:09.052Z,2.50
2022-09-07T07:11:59.898Z,2.53
2022-09-07T07:19:44.262Z,2.03
2022-09-07T07:23:44.287Z,2.17
2022-09-07T07:26:36.025Z,2.20
2022-09-07T07:39:06.728Z,2.40
2022-09-07T07:46:12.675Z,2.50
2022-09-07T07:53:42.417Z,1.90
2022-09-07T08:07:11.310Z,2.00
2022-09-07T08:10:24.905Z,2.03
2022-09-07T08:14:04.425Z,1.93
2022-09-07T08:17:37.858Z,1.90
2022-09-07T08:25:57.053Z,1.80
2022-09-07T08:36:00.842Z,2.30
2022-09-07T08:39:30.382Z,2.10
2022-09-07T08:43:07.457Z,2.00
2022-09-07T08:47:06.859Z,2.23
2022-09-07T08:50:42.803Z,2.03
2022-09-07T08:53:57.875Z,1.70
2022-09-07T09:17:22.397Z,2.20
2022-09-07T09:49:13.532Z,2.27
2022-09-07T10:05:08.825Z,1.97
2022-09-07T10:08:51.891Z,1.90
2022-09-07T10:15:55.746Z,1.80
2022-09-07T10:19:10.467Z,1.70
2022-09-07T10:22:53.980Z,2.10
2022-09-07T10:25:17.925Z,2.10
2022-09-07T10:31:36.409Z,1.83
2022-09-07T10:35:02.876Z,1.90
2022-09-07T10:38:36.863Z,1.98
2022-09-07T10:41:31.901Z,1.92
2022-09-07T10:44:19.272Z,1.93
2022-09-07T10:47:05.135Z,2.00
2022-09-07T10:50:48.878Z,2.30
2022-09-07T10:54:41.929Z,1.90
2022-09-07T11:05:44.833Z,1.77
2022-09-07T11:18:18.290Z,1.83
2022-09-07T11:21:56.137Z,2.08
2022-09-07T11:38:17.119Z,1.60
2022-09-07T11:42:45.982Z,1.75
2022-09-07T11:46:10.548Z,1.67
2022-09-07T11:49:15.669Z,1.50
2022-09-07T11:52:58.599Z,1.75
2022-09-07T12:04:15.361Z,1.50
2022-09-07T12:17:49.226Z,1.60
2022-09-07T12:35:15.050Z,1.90
2022-09-07T13:36:07.618Z,1.38
2022-09-07T13:39:33.883Z,1.27
2022-09-07T14:15:43.532Z,1.30
2022-09-07T14:18:45.326Z,1.20
2022-09-07T14:22:04.425Z,1.23
2022-09-07T14:30:17.795Z,1.20
2022-09-07T14:36:52.054Z,1.30
2022-09-07T14:39:37.630Z,1.27
2022-09-07T14:42:22.875Z,1.27
2022-09-07T15:00:33.571Z,1.40
2022-09-07T15:03:41.208Z,1.30
2022-09-07T15:09:12.461Z,1.20
2022-09-07T15:11:45.583Z,1.70
2022-09-07T15:14:34.926Z,1.30
2022-09-07T15:17:43.259Z,1.40
2022-09-07T15:20:54.476Z,1.30
2022-09-07T15:24:16.434Z,1.70
2022-09-07T15:27:25.670Z,1.33
2022-09-07T15:29:57.051Z,1.60
2022-09-07T15:32:34.162Z,1.30
2022-09-07T15:35:20.421Z,1.20
2022-09-07T15:38:01.892Z,1.27
2022-09-07T15:48:25.201Z,1.20
2022-09-07T15:54:12.835Z,1.40
2022-09-07T16:03:04.243Z,1.40
2022-09-07T16:13:53.144Z,1.27
2022-09-07T16:23:55.745Z,0.70
2022-09-07T16:26:51.404Z,0.70
2022-09-07T16:29:42.738Z,0.90
2022-09-07T17:15:14.463Z,0.90
2022-09-07T17:22:45.184Z,0.90
2022-09-07T17:26:47.503Z,1.00
2022-09-07T17:43:53.599Z,0.93
2022-09-07T17:52:03.980Z,1.20
2022-09-07T18:04:32.210Z,1.17
2022-09-07T18:07:39.858Z,1.10
2022-09-07T18:38:32.640Z,1.50
2022-09-07T18:41:09.621Z,1.60
2022-09-07T19:10:06.812Z,1.50
2022-09-07T19:16:49.961Z,2.00
2022-09-07T19:20:03.250Z,2.10
2022-09-07T19:22:52.423Z,2.07
2022-09-07T19:25:41.451Z,2.17
2022-09-07T19:57:19.740Z,1.90
2022-09-07T20:01:08.321Z,1.83
2022-09-07T20:06:30.232Z,1.73
2022-09-07T20:09:05.627Z,1.73
2022-09-07T20:27:36.984Z,1.87
2022-09-07T20:30:33.656Z,1.80
2022-09-07T20:33:10.425Z,1.63
2022-09-07T20:39:42.219Z,1.80
2022-09-07T20:42:18.753Z,2.10
2022-09-07T20:45:10.898Z,2.20
2022-09-07T21:14:12.300Z,2.00
2022-09-07T21:17:57.196Z,1.73
2022-09-07T21:21:18.074Z,1.93
2022-09-07T21:24:12.341Z,1.90
2022-09-07T21:27:37.648Z,1.77
2022-09-07T21:30:10.309Z,1.97
2022-09-07T21:32:40.356Z,1.60
2022-09-07T21:35:10.696Z,1.80
2022-09-07T21:37:38.967Z,2.00
2022-09-07T21:40:10.557Z,1.63
2022-09-07T21:42:38.930Z,1.60
2022-09-07T21:45:09.105Z,1.60
2022-09-07T21:47:37.518Z,1.30
2022-09-07T21:50:08.174Z,1.40
2022-09-07T21:52:38.802Z,1.67
2022-09-07T21:55:11.820Z,1.67
2022-09-07T21:58:12.520Z,1.60
2022-09-07T22:00:41.029Z,1.70
2022-09-07T22:03:10.729Z,1.70
2022-09-07T22:05:43.514Z,1.80
2022-09-07T22:08:16.350Z,2.00
2022-09-07T22:10:53.208Z,1.93
2022-09-07T22:13:31.910Z,1.80
2022-09-07T22:16:07.887Z,1.60
2022-09-07T22:18:51.000Z,2.00
2022-09-07T22:24:32.635Z,1.70
2022-09-07T22:27:11.630Z,1.90
2022-09-07T22:30:01.243Z,1.90
2022-09-07T22:33:05.834Z,2.00
2022-09-07T22:35:57.096Z,1.70
2022-09-07T22:39:15.200Z,1.80
2022-09-07T22:42:20.019Z,1.80
2022-09-07T22:45:12.018Z,1.77
2022-09-07T22:47:50.648Z,2.10
2022-09-07T22:50:20.291Z,2.00
2022-09-07T22:52:49.294Z,1.77
2022-09-07T22:55:18.943Z,1.90
2022-09-07T22:57:48.001Z,1.80
2022-09-07T23:00:16.932Z,2.10
2022-09-07T23:02:45.368Z,1.97
2022-09-07T23:05:14.064Z,2.30
2022-09-07T23:07:44.666Z,2.37
2022-09-07T23:10:13.193Z,2.03
2022-09-07T23:12:42.862Z,2.40
2022-09-07T23:15:12.844Z,2.57
2022-09-07T23:17:44.458Z,2.70
2022-09-07T23:20:13.032Z,2.33
2022-09-07T23:22:44.992Z,2.30
2022-09-07T23:25:14.194Z,2.73
2022-09-07T23:27:44.055Z,2.50
2022-09-07T23:30:13.981Z,2.47
2022-09-07T23:32:42.435Z,2.23
2022-09-07T23:35:16.450Z,2.50
2022-09-07T23:37:45.213Z,2.80
2022-09-07T23:40:15.849Z,2.30
2022-09-07T23:42:45.655Z,2.67
2022-09-07T23:45:14.417Z,2.80
2022-09-07T23:47:42.800Z,2.60
2022-09-07T23:50:12.029Z,2.70
2022-09-07T23:52:40.506Z,2.50
2022-09-07T23:55:10.973Z,2.50
2022-09-07T23:57:39.821Z,2.50
